In Rescue
 
Open Full Screen Window  High Contrast Mode
Wind Gusting 00 knots
09
April 19, 2021 8:52 PM CDT
Weather Information
Wind Direction
  300 °
Wind Speed
  09 kt (10 mph)
Wind Gust
  00 kt (0 mph)
Variable Wind
270°
350°
Altimeter
30.14 in
Visibility
10 SM
Temperature
02° C
36° F
Dewpoint
-11° C
12° F
Humidity
38%
1hr Rain Fall
00.00 in.
24hr Rain Fall
00.00 in.
Sky Condition
Overcast @ 7,500 ft
Scattered @ 6,500 ft
VFR

METAR KCNB 200152Z AUTO 30009KT 270V350 10SM SCT065 OVC075 02/M11 A3014 RMK AO2 T00231107

FAA Disclaimer: The data displayed is for advisory purposes only and is not to be used for flight planning or operations.